Time;durP1;ratioP1;P1;durP2;ratioP2;P2;SDS_P1;SDS_P2;PMS_P1;PMS_P2;Temp;Humidity;BMP_temperature;BMP_pressure;BME280_temperature;BME280_humidity;BME280_pressure;Samples;Min_cycle;Max_cycle;Signal;HPM_P1;HPM_P2
2022/12/30 00:01:21;;;;;;;15.23;2.37;;;;;;;-145.18;100.00;46726.81;6152737;23;20013;-73
2022/12/30 00:03:47;;;;;;;18.47;2.67;;;;;;;-145.18;100.00;46726.81;6152472;23;20006;-73
2022/12/30 00:06:17;;;;;;;18.60;2.50;;;;;;;-145.18;100.00;46734.63;6153035;23;20673;-73
2022/12/30 00:08:47;;;;;;;17.77;2.90;;;;;;;-145.18;100.00;46732.66;6152424;23;20244;-73
2022/12/30 00:11:17;;;;;;;13.90;3.07;;;;;;;-145.18;100.00;46726.81;6152985;23;20232;-73
2022/12/30 00:34:23;;;;;;;13.80;2.05;;;;;;;-145.18;100.00;46722.91;6152830;23;20311;-73
2022/12/30 00:36:50;;;;;;;15.07;2.25;;;;;;;-145.18;100.00;46726.81;6152465;23;20035;-73
2022/12/30 00:39:15;;;;;;;12.03;2.23;;;;;;;-145.18;100.00;46726.81;6152622;23;20009;-73
2022/12/30 00:44:25;;;;;;;14.13;2.03;;;;;;;-145.18;100.00;46726.81;6152725;23;20067;-73
2022/12/30 00:46:50;;;;;;;12.63;2.03;;;;;;;-145.18;100.00;46728.75;6152019;23;20323;-73
2022/12/30 00:57:28;;;;;;;15.63;3.93;;;;;;;-145.18;100.00;46722.91;6152337;23;20320;-73
2022/12/30 00:59:54;;;;;;;16.43;2.83;;;;;;;-145.18;100.00;46732.66;6150922;23;20275;-73
2022/12/30 01:02:20;;;;;;;23.00;3.50;;;;;;;-145.18;100.00;46728.75;6152151;23;20010;-73
2022/12/30 01:04:45;;;;;;;16.27;3.87;;;;;;;-145.18;100.00;46722.91;6152222;23;20343;-73
2022/12/30 01:07:10;;;;;;;11.43;2.53;;;;;;;-145.18;100.00;46724.84;6150216;23;20013;-73
2022/12/30 01:09:36;;;;;;;15.37;2.87;;;;;;;-145.18;100.00;46728.75;6152523;23;20048;-73
2022/12/30 01:12:09;;;;;;;17.73;3.63;;;;;;;-145.18;100.00;46724.84;6151909;23;20468;-73
2022/12/30 01:14:46;;;;;;;18.93;3.63;;;;;;;-145.18;100.00;46726.81;6152594;23;20009;-73
2022/12/30 01:17:14;;;;;;;15.63;4.07;;;;;;;-145.18;100.00;46722.91;6152021;23;20334;-73
2022/12/30 01:19:40;;;;;;;15.17;2.80;;;;;;;-145.18;100.00;46726.81;6152667;23;20228;-73
2022/12/30 01:22:07;;;;;;;14.97;3.40;;;;;;;-145.18;100.00;46722.91;6152171;23;20345;-73
2022/12/30 01:24:32;;;;;;;17.23;2.80;;;;;;;-145.18;100.00;46724.84;6152334;23;20076;-73
2022/12/30 01:26:58;;;;;;;16.83;2.97;;;;;;;-145.18;100.00;46722.91;6152142;23;20270;-73
2022/12/30 01:29:36;;;;;;;11.43;3.00;;;;;;;-145.18;100.00;46724.84;6152307;23;20017;-73
2022/12/30 01:32:06;;;;;;;24.30;3.17;;;;;;;-145.18;100.00;46722.91;6152099;23;20547;-73
2022/12/30 01:34:31;;;;;;;14.67;3.00;;;;;;;-145.18;100.00;46724.84;6152219;23;20231;-73
2022/12/30 01:36:57;;;;;;;19.07;2.90;;;;;;;-145.18;100.00;46728.75;6151639;23;20569;-73
2022/12/30 01:39:22;;;;;;;15.47;2.63;;;;;;;-145.18;100.00;46726.81;6152533;23;20020;-73
2022/12/30 01:41:48;;;;;;;19.20;3.00;;;;;;;-145.18;100.00;46724.84;6152441;23;20377;-73
2022/12/30 01:44:39;;;;;;;13.57;2.50;;;;;;;-145.18;100.00;46724.84;6151847;23;20009;-73
2022/12/30 01:47:04;;;;;;;16.90;2.40;;;;;;;-145.18;100.00;46724.84;6151769;23;20215;-73
2022/12/30 01:49:31;;;;;;;13.57;2.77;;;;;;;-145.18;100.00;46722.91;6151226;23;20266;-73
2022/12/30 01:51:56;;;;;;;15.30;2.80;;;;;;;-145.18;100.00;46726.81;6151659;23;20012;-73
2022/12/30 01:54:22;;;;;;;16.90;3.93;;;;;;;-145.18;100.00;46726.81;6152439;23;20232;-73
2022/12/30 01:56:47;;;;;;;14.83;2.40;;;;;;;-145.18;100.00;46724.84;6152322;23;20013;-73
2022/12/30 01:59:17;;;;;;;13.57;2.53;;;;;;;-145.18;100.00;46724.84;6151710;23;20140;-73
2022/12/30 02:01:44;;;;;;;14.57;2.50;;;;;;;-145.18;100.00;46722.91;6152213;23;20025;-73
2022/12/30 02:04:13;;;;;;;21.70;3.57;;;;;;;-145.18;100.00;46726.81;6151317;23;20251;-73
2022/12/30 02:06:54;;;;;;;21.87;3.37;;;;;;;-145.18;100.00;46726.81;6152541;23;20220;-73
2022/12/30 02:09:20;;;;;;;19.43;2.60;;;;;;;-145.18;100.00;46724.84;6151981;23;20689;-73
2022/12/30 02:11:46;;;;;;;18.40;2.67;;;;;;;-145.18;100.00;46728.75;6152487;23;20236;-73
2022/12/30 02:14:12;;;;;;;20.40;2.83;;;;;;;-145.18;100.00;46724.84;6151740;23;20070;-73
2022/12/30 02:16:54;;;;;;;13.67;2.50;;;;;;;-145.18;100.00;46720.94;6152000;23;20020;-73
2022/12/30 02:20:00;;;;;;;12.30;2.43;;;;;;;-145.18;100.00;46722.91;6152015;23;20720;-73
2022/12/30 02:23:01;;;;;;;14.93;2.77;;;;;;;-145.18;100.00;46722.91;6152096;23;20234;-73
2022/12/30 02:26:04;;;;;;;22.00;3.10;;;;;;;-145.18;100.00;46722.91;6061679;23;20238;-73
2022/12/30 02:28:54;;;;;;;15.60;2.70;;;;;;;-145.18;100.00;46722.91;6151772;23;20244;-73
2022/12/30 02:31:49;;;;;;;24.97;3.27;;;;;;;-145.18;100.00;46720.94;6152081;23;20235;-73
2022/12/30 02:34:23;;;;;;;21.03;3.00;;;;;;;-145.18;100.00;46717.03;6152292;23;20230;-73
2022/12/30 02:37:03;;;;;;;18.70;2.40;;;;;;;-145.18;100.00;46720.94;6151929;23;20239;-73
2022/12/30 02:40:18;;;;;;;17.57;2.60;;;;;;;-145.18;100.00;46720.94;6151789;23;20219;-73
2022/12/30 02:45:43;;;;;;;17.53;2.40;;;;;;;-145.18;100.00;46720.94;6152290;23;20269;-73
2022/12/30 02:48:22;;;;;;;12.37;2.20;;;;;;;-145.18;100.00;46722.91;6152089;23;20228;-73
2022/12/30 02:53:37;;;;;;;12.02;2.50;;;;;;;-145.18;100.00;46720.94;6152366;23;20230;-73
2022/12/30 02:56:03;;;;;;;19.53;3.60;;;;;;;-145.18;100.00;46719.00;6153280;23;20002;-73
2022/12/30 02:58:32;;;;;;;14.73;2.53;;;;;;;-145.18;100.00;46719.00;6153467;23;20242;-73
2022/12/30 03:03:57;;;;;;;12.38;2.63;;;;;;;-145.18;100.00;46719.00;6168063;23;20500;-73
2022/12/30 03:06:44;;;;;;;15.97;2.80;;;;;;;-145.18;100.00;46720.94;6183585;23;20016;-72
2022/12/30 03:09:24;;;;;;;19.97;3.53;;;;;;;-145.18;100.00;46720.94;6183217;23;20249;-72
2022/12/30 03:12:04;;;;;;;19.30;2.37;;;;;;;-145.18;100.00;46715.09;6183079;23;20286;-73
2022/12/30 03:14:47;;;;;;;18.83;2.67;;;;;;;-145.18;100.00;46719.00;6182015;23;20238;-72
2022/12/30 03:17:22;;;;;;;14.20;2.67;;;;;;;-145.18;100.00;46719.00;6183830;23;20223;-72
2022/12/30 03:19:52;;;;;;;21.02;3.22;;;;;;;-145.18;100.00;46719.00;6183286;23;20606;-73
2022/12/30 03:27:53;;;;;;;15.73;3.43;;;;;;;-145.18;100.00;46719.00;6182793;23;20390;-73
2022/12/30 03:30:19;;;;;;;13.90;2.87;;;;;;;-145.18;100.00;46719.00;6183055;23;20716;-73
2022/12/30 03:32:46;;;;;;;21.63;3.00;;;;;;;-145.18;100.00;46720.94;6182561;23;20226;-72
2022/12/30 03:35:12;;;;;;;16.77;2.40;;;;;;;-145.18;100.00;46719.00;6183567;23;20231;-72
2022/12/30 03:37:47;;;;;;;16.47;2.50;;;;;;;-145.18;100.00;46722.91;6182989;23;20235;-73
2022/12/30 03:40:19;;;;;;;17.03;2.70;;;;;;;-145.18;100.00;46717.03;6183240;23;20250;-73
2022/12/30 03:42:47;;;;;;;23.00;3.23;;;;;;;-145.18;100.00;46713.13;6182834;23;20230;-72
2022/12/30 03:45:14;;;;;;;22.23;4.77;;;;;;;-145.18;100.00;46719.00;6183201;23;20607;-73
2022/12/30 03:47:39;;;;;;;13.80;3.67;;;;;;;-145.18;100.00;46717.03;6183062;23;20309;-73
2022/12/30 03:50:05;;;;;;;16.97;2.57;;;;;;;-145.18;100.00;46719.00;6182666;23;20286;-72
2022/12/30 03:52:30;;;;;;;13.63;2.70;;;;;;;-145.18;100.00;46717.03;6183078;23;20009;-72
2022/12/30 03:54:56;;;;;;;22.37;2.53;;;;;;;-145.18;100.00;46715.09;6182882;23;20005;-73
2022/12/30 03:57:21;;;;;;;11.93;2.70;;;;;;;-145.18;100.00;46713.13;6181235;23;20401;-72
2022/12/30 03:59:46;;;;;;;17.47;4.10;;;;;;;-145.18;100.00;46717.03;6182688;23;20005;-73
2022/12/30 04:02:12;;;;;;;19.33;2.73;;;;;;;-145.18;100.00;46713.13;6182554;23;20055;-72
2022/12/30 04:04:37;;;;;;;15.70;2.67;;;;;;;-145.18;100.00;46719.00;6181190;23;20510;-72
2022/12/30 04:07:03;;;;;;;19.13;2.43;;;;;;;-145.18;100.00;46717.03;6182510;23;20017;-73
2022/12/30 04:09:28;;;;;;;18.40;3.20;;;;;;;-145.18;100.00;46711.19;6183221;23;20017;-72
2022/12/30 04:11:54;;;;;;;22.67;3.13;;;;;;;-145.18;100.00;46707.28;6182117;23;20005;-72
2022/12/30 04:14:19;;;;;;;21.03;3.67;;;;;;;-145.18;100.00;46713.13;6183362;23;20001;-72
2022/12/30 04:16:45;;;;;;;17.97;2.53;;;;;;;-145.18;100.00;46715.09;6182715;23;20005;-73
2022/12/30 04:19:10;;;;;;;15.73;2.70;;;;;;;-145.18;100.00;46713.13;6182710;23;20013;-73
2022/12/30 04:21:36;;;;;;;24.57;3.40;;;;;;;-145.18;100.00;46707.28;6182661;23;20013;-72
2022/12/30 04:24:01;;;;;;;17.57;2.43;;;;;;;-145.18;100.00;46717.03;6182357;23;20055;-72
2022/12/30 04:26:27;;;;;;;19.83;2.90;;;;;;;-145.18;100.00;46707.28;6182858;23;20016;-72
2022/12/30 04:28:52;;;;;;;23.97;2.93;;;;;;;-145.18;100.00;46713.13;6182197;23;20362;-72
2022/12/30 04:31:18;;;;;;;16.53;2.47;;;;;;;-145.18;100.00;46707.28;6182807;23;20005;-72
2022/12/30 04:33:43;;;;;;;25.17;3.93;;;;;;;-145.18;100.00;46713.13;6181998;23;20088;-73
2022/12/30 04:36:09;;;;;;;19.07;3.17;;;;;;;-145.18;100.00;46711.19;6182775;23;20040;-72
2022/12/30 04:38:35;;;;;;;26.73;2.87;;;;;;;-145.18;100.00;46713.13;6182699;23;20399;-72
2022/12/30 04:41:00;;;;;;;14.20;2.70;;;;;;;-145.18;100.00;46715.09;6182523;23;20009;-73
2022/12/30 04:43:26;;;;;;;18.47;3.20;;;;;;;-145.18;100.00;46717.03;6182290;23;20024;-73
2022/12/30 04:45:52;;;;;;;18.67;4.33;;;;;;;-145.18;100.00;46715.09;6182443;23;20016;-73
2022/12/30 04:48:18;;;;;;;11.37;2.50;;;;;;;-145.18;100.00;46711.19;6182369;23;20015;-73
2022/12/30 04:50:44;;;;;;;17.93;3.07;;;;;;;-145.18;100.00;46715.09;6182706;23;20092;-72
2022/12/30 04:53:11;;;;;;;18.73;3.57;;;;;;;-145.18;100.00;46715.09;6180729;23;20001;-72
2022/12/30 04:55:37;;;;;;;16.20;3.37;;;;;;;-145.18;100.00;46711.19;6182505;23;20702;-72
2022/12/30 04:58:02;;;;;;;20.17;3.27;;;;;;;-145.18;100.00;46719.00;6181972;23;20232;-72
2022/12/30 05:00:28;;;;;;;20.53;3.00;;;;;;;-145.18;100.00;46709.22;6182596;23;20009;-72
2022/12/30 05:02:53;;;;;;;21.70;3.13;;;;;;;-145.18;100.00;46713.13;6181919;23;20028;-72
2022/12/30 05:05:18;;;;;;;20.07;4.03;;;;;;;-145.18;100.00;46715.09;6182675;23;20044;-72
2022/12/30 05:07:44;;;;;;;24.67;4.23;;;;;;;-145.18;100.00;46717.03;6181768;23;20470;-72
2022/12/30 05:10:09;;;;;;;16.17;2.80;;;;;;;-145.18;100.00;46719.00;6180706;23;20009;-72
2022/12/30 05:12:34;;;;;;;16.93;2.90;;;;;;;-145.18;100.00;46715.09;6182165;23;20056;-72
2022/12/30 05:15:00;;;;;;;12.13;2.40;;;;;;;-145.18;100.00;46713.13;6182296;23;20017;-73
2022/12/30 05:17:25;;;;;;;17.23;2.97;;;;;;;-145.18;100.00;46715.09;6182172;23;20408;-73
2022/12/30 05:19:51;;;;;;;14.50;2.63;;;;;;;-145.18;100.00;46717.03;6182368;23;20025;-73
2022/12/30 05:22:16;;;;;;;20.73;3.43;;;;;;;-145.18;100.00;46709.22;6182081;23;20016;-72
2022/12/30 05:27:25;;;;;;;18.30;3.30;;;;;;;-145.18;100.00;46711.19;6182122;23;20036;-72
2022/12/30 05:29:51;;;;;;;18.50;4.03;;;;;;;-145.18;100.00;46715.09;6181938;23;20684;-73
2022/12/30 05:32:16;;;;;;;15.83;3.03;;;;;;;-145.18;100.00;46707.28;6182261;23;20008;-72
2022/12/30 05:34:41;;;;;;;27.07;5.57;;;;;;;-145.18;100.00;46715.09;6182273;23;20005;-72
2022/12/30 05:37:07;;;;;;;17.87;2.73;;;;;;;-145.18;100.00;46713.13;6181871;23;20017;-72
2022/12/30 05:39:32;;;;;;;19.77;2.73;;;;;;;-145.18;100.00;46703.38;6180731;23;20038;-72
2022/12/30 05:41:57;;;;;;;15.87;2.73;;;;;;;-145.18;100.00;46715.09;6182147;23;20005;-72
2022/12/30 05:44:23;;;;;;;13.07;2.50;;;;;;;-145.18;100.00;46713.13;6180397;23;20017;-72
2022/12/30 05:46:48;;;;;;;15.43;2.50;;;;;;;-145.18;100.00;46713.13;6179771;23;20012;-73
2022/12/30 05:49:14;;;;;;;20.20;3.03;;;;;;;-145.18;100.00;46713.13;6181228;23;20031;-72
2022/12/30 05:51:39;;;;;;;20.73;2.40;;;;;;;-145.18;100.00;46713.13;6181914;23;20001;-72
2022/12/30 05:54:04;;;;;;;20.30;3.63;;;;;;;-145.18;100.00;46707.28;6181248;23;20009;-73
2022/12/30 05:56:30;;;;;;;18.60;3.20;;;;;;;-145.18;100.00;46715.09;6181898;23;20461;-72
2022/12/30 05:58:55;;;;;;;20.30;3.40;;;;;;;-145.18;100.00;46697.50;6181388;23;20016;-73
2022/12/30 06:01:20;;;;;;;18.87;2.70;;;;;;;-145.18;100.00;46703.38;6181820;23;20088;-72
2022/12/30 06:03:46;;;;;;;19.60;2.43;;;;;;;-145.18;100.00;46703.38;6181437;23;20017;-72
2022/12/30 06:06:11;;;;;;;25.63;3.00;;;;;;;-145.18;100.00;46707.28;6182109;23;20159;-72
2022/12/30 06:08:38;;;;;;;18.00;3.57;;;;;;;-145.18;100.00;46701.41;6181614;23;20017;-72
2022/12/30 06:11:04;;;;;;;17.63;3.53;;;;;;;-145.18;100.00;46707.28;6181761;23;20017;-73
2022/12/30 06:13:30;;;;;;;17.17;3.10;;;;;;;-145.18;100.00;46703.38;6181682;23;20231;-72
2022/12/30 06:15:55;;;;;;;20.00;2.93;;;;;;;-145.18;100.00;46705.31;6181148;23;20772;-72
2022/12/30 06:18:20;;;;;;;16.37;4.27;;;;;;;-145.18;100.00;46697.50;6180229;23;20339;-72
2022/12/30 06:20:47;;;;;;;20.87;2.87;;;;;;;-145.18;100.00;46711.19;6181618;23;20009;-72
2022/12/30 06:23:13;;;;;;;29.27;4.47;;;;;;;-145.18;100.00;46701.41;6183735;23;20013;-72
2022/12/30 06:25:38;;;;;;;20.53;4.20;;;;;;;-145.18;100.00;46699.47;6183887;23;20281;-73
2022/12/30 06:28:04;;;;;;;17.27;3.60;;;;;;;-145.18;100.00;46701.41;6183043;23;20235;-72
2022/12/30 06:30:30;;;;;;;15.10;2.83;;;;;;;-145.18;100.00;46693.59;6183971;23;20012;-72
2022/12/30 06:32:56;;;;;;;24.37;2.93;;;;;;;-145.18;100.00;46695.56;6183678;23;20035;-72
2022/12/30 06:35:22;;;;;;;21.90;3.27;;;;;;;-145.18;100.00;46707.28;6184063;23;20005;-73
2022/12/30 06:37:47;;;;;;;19.77;3.57;;;;;;;-145.18;100.00;46709.22;6182909;23;20313;-73
2022/12/30 06:40:13;;;;;;;21.17;4.63;;;;;;;-145.18;100.00;46707.28;6180553;23;20278;-73
2022/12/30 06:42:38;;;;;;;22.20;3.93;;;;;;;-145.18;100.00;46701.41;6182801;23;20012;-72
2022/12/30 06:45:04;;;;;;;16.97;3.27;;;;;;;-145.18;100.00;46701.41;6182782;23;20011;-73
2022/12/30 06:47:31;;;;;;;18.07;3.67;;;;;;;-145.18;100.00;46695.56;6181779;23;20013;-72
2022/12/30 06:49:57;;;;;;;22.67;4.60;;;;;;;-145.18;100.00;46689.69;6182781;23;20263;-72
2022/12/30 06:52:22;;;;;;;21.17;4.57;;;;;;;-145.18;100.00;46695.56;6183452;23;20648;-73
2022/12/30 06:54:47;;;;;;;23.23;3.50;;;;;;;-145.18;100.00;46699.47;6181310;23;20016;-73
2022/12/30 06:57:13;;;;;;;20.53;4.27;;;;;;;-145.18;100.00;46691.66;6182999;23;20017;-73
2022/12/30 06:59:38;;;;;;;18.23;3.23;;;;;;;-145.18;100.00;46697.50;6183047;23;20417;-72
2022/12/30 07:02:04;;;;;;;21.23;3.87;;;;;;;-145.18;100.00;46695.56;6182841;23;20036;-73
2022/12/30 07:04:29;;;;;;;20.97;3.70;;;;;;;-145.18;100.00;46697.50;6182821;23;20017;-73
2022/12/30 07:06:54;;;;;;;13.37;3.57;;;;;;;-145.18;100.00;46699.47;6183057;23;20016;-73
2022/12/30 07:09:20;;;;;;;30.37;4.87;;;;;;;-145.18;100.00;46693.59;6182736;23;20481;-73
2022/12/30 07:11:45;;;;;;;18.67;3.43;;;;;;;-145.18;100.00;46697.50;6181263;23;20009;-73
2022/12/30 07:14:10;;;;;;;23.73;3.73;;;;;;;-145.18;100.00;46693.59;6183020;23;20045;-73
2022/12/30 07:16:36;;;;;;;21.03;4.20;;;;;;;-145.18;100.00;46691.66;6183697;23;20016;-74
2022/12/30 07:19:01;;;;;;;17.70;3.87;;;;;;;-145.18;100.00;46693.59;6182270;23;20009;-74
2022/12/30 07:21:27;;;;;;;23.80;4.50;;;;;;;-145.18;100.00;46693.59;6182816;23;20036;-74
2022/12/30 07:23:52;;;;;;;22.07;3.80;;;;;;;-145.18;100.00;46699.47;6182517;23;20012;-73
2022/12/30 07:26:18;;;;;;;26.03;5.90;;;;;;;-145.18;100.00;46693.59;6183378;23;20020;-72
2022/12/30 07:28:43;;;;;;;24.50;5.73;;;;;;;-145.18;100.00;46685.78;6182879;23;20051;-73
2022/12/30 07:31:08;;;;;;;24.23;5.93;;;;;;;-145.18;100.00;46689.69;6182416;23;20016;-74
2022/12/30 07:33:34;;;;;;;19.70;4.60;;;;;;;-145.18;100.00;46693.59;6182314;23;20009;-73
2022/12/30 07:35:59;;;;;;;20.40;4.70;;;;;;;-145.18;100.00;46693.59;6182719;23;20485;-73
2022/12/30 07:38:24;;;;;;;19.87;4.47;;;;;;;-145.18;100.00;46685.78;6182531;23;20013;-74
2022/12/30 07:40:50;;;;;;;26.50;6.23;;;;;;;-145.18;100.00;46693.59;6181682;23;20025;-73
2022/12/30 07:43:15;;;;;;;22.17;4.00;;;;;;;-145.18;100.00;46699.47;6182609;23;20032;-74
2022/12/30 07:45:41;;;;;;;24.47;4.40;;;;;;;-145.18;100.00;46697.50;6182545;23;20462;-74
2022/12/30 07:48:06;;;;;;;21.93;5.13;;;;;;;-145.18;100.00;46691.66;6182117;23;20013;-73
2022/12/30 07:50:32;;;;;;;18.77;6.07;;;;;;;-145.18;100.00;46697.50;6182530;23;20013;-73
2022/12/30 07:52:59;;;;;;;20.17;4.60;;;;;;;-145.18;100.00;46691.66;6182249;23;20380;-71
2022/12/30 07:55:24;;;;;;;15.97;4.20;;;;;;;-145.18;100.00;46687.75;6179785;23;20032;-74
2022/12/30 07:57:49;;;;;;;20.77;4.90;;;;;;;-145.18;100.00;46695.56;6182156;23;20235;-74
2022/12/30 08:00:16;;;;;;;21.77;4.70;;;;;;;-145.18;100.00;46689.69;6182961;23;20076;-73
2022/12/30 08:02:41;;;;;;;18.57;5.17;;;;;;;-145.18;100.00;46699.47;6181955;23;20351;-73
2022/12/30 08:05:08;;;;;;;22.97;4.50;;;;;;;-145.18;100.00;46697.50;6182426;23;20238;-73
2022/12/30 08:07:34;;;;;;;22.23;4.70;;;;;;;-145.18;100.00;46695.56;6182653;23;20016;-74
2022/12/30 08:09:59;;;;;;;17.83;5.00;;;;;;;-145.18;100.00;46695.56;6180227;23;20259;-73
2022/12/30 08:12:25;;;;;;;13.00;4.13;;;;;;;-145.18;100.00;46705.31;6182406;23;20009;-73
2022/12/30 08:14:50;;;;;;;13.97;4.23;;;;;;;-145.18;100.00;46697.50;6181869;23;20485;-73
2022/12/30 08:17:15;;;;;;;15.10;3.63;;;;;;;-145.18;100.00;46691.66;6181087;23;20401;-73
2022/12/30 08:19:41;;;;;;;13.70;4.10;;;;;;;-145.18;100.00;46695.56;6182196;23;20009;-73
2022/12/30 08:22:06;;;;;;;13.83;3.90;;;;;;;-145.18;100.00;46685.78;6181786;23;20005;-74
2022/12/30 08:24:31;;;;;;;19.57;4.23;;;;;;;-145.18;100.00;46699.47;6182712;23;20488;-73
2022/12/30 08:26:57;;;;;;;14.20;3.80;;;;;;;-145.18;100.00;46701.41;6181979;23;20084;-74
2022/12/30 08:29:23;;;;;;;13.97;4.23;;;;;;;-145.18;100.00;46701.41;6182358;23;20017;-74
2022/12/30 08:31:49;;;;;;;17.87;4.43;;;;;;;-145.18;100.00;46695.56;6178976;23;20498;-74
2022/12/30 08:34:16;;;;;;;10.27;3.47;;;;;;;-145.18;100.00;46693.59;6181533;23;20008;-74
2022/12/30 08:36:42;;;;;;;20.40;3.47;;;;;;;-145.18;100.00;46695.56;6181928;23;20238;-73
2022/12/30 08:39:08;;;;;;;18.47;3.70;;;;;;;-145.18;100.00;46697.50;6180977;23;20277;-74
2022/12/30 08:41:36;;;;;;;11.03;2.67;;;;;;;-145.18;100.00;46707.28;6182120;23;20040;-73
2022/12/30 08:44:03;;;;;;;15.97;2.97;;;;;;;-145.18;100.00;46697.50;6180643;23;20009;-73
2022/12/30 08:46:30;;;;;;;11.07;3.10;;;;;;;-145.18;100.00;46699.47;6179045;23;20245;-73
2022/12/30 08:48:56;;;;;;;11.57;3.10;;;;;;;-145.18;100.00;46707.28;6181425;23;20242;-74
2022/12/30 08:51:21;;;;;;;9.87;2.90;;;;;;;-145.18;100.00;46707.28;6181635;23;20541;-73
2022/12/30 08:53:47;;;;;;;11.43;2.50;;;;;;;-145.18;100.00;46709.22;6181455;23;20083;-73
2022/12/30 08:56:21;;;;;;;13.20;2.87;;;;;;;-145.18;100.00;46709.22;6181628;23;20367;-73
2022/12/30 08:58:47;;;;;;;9.37;2.33;;;;;;;-145.18;100.00;46703.38;6180605;23;20005;-74
2022/12/30 09:01:19;;;;;;;12.63;2.50;;;;;;;-145.18;100.00;46703.38;6181236;23;20231;-74
2022/12/30 09:03:45;;;;;;;10.40;2.37;;;;;;;-145.18;100.00;46709.22;6181279;23;20250;-73
2022/12/30 09:06:12;;;;;;;10.07;2.37;;;;;;;-145.18;100.00;46707.28;6181030;23;20237;-73
2022/12/30 09:08:38;;;;;;;12.30;2.87;;;;;;;-145.18;100.00;46709.22;6179093;23;20779;-73
2022/12/30 09:11:09;;;;;;;12.80;2.33;;;;;;;-145.18;100.00;46711.19;6181787;23;20471;-74
2022/12/30 09:13:38;;;;;;;8.57;2.20;;;;;;;-145.18;100.00;46709.22;6182088;23;20226;-73
2022/12/30 09:16:06;;;;;;;9.40;2.40;;;;;;;-145.18;100.00;46707.28;6182070;23;20237;-73
2022/12/30 09:18:31;;;;;;;6.70;2.23;;;;;;;-145.18;100.00;46707.28;6181003;23;20218;-73
2022/12/30 09:20:56;;;;;;;15.80;3.90;;;;;;;-145.18;100.00;46707.28;6179058;23;20239;-73
2022/12/30 09:23:22;;;;;;;8.23;2.10;;;;;;;-145.18;100.00;46703.38;6181781;23;20009;-74
2022/12/30 09:25:47;;;;;;;8.73;2.67;;;;;;;-145.18;100.00;46705.31;6181543;23;20016;-73
2022/12/30 09:28:13;;;;;;;18.20;2.60;;;;;;;-145.18;100.00;46703.38;6182222;23;20048;-73
2022/12/30 09:30:39;;;;;;;8.97;2.20;;;;;;;-145.18;100.00;46703.38;6182167;23;20017;-74
2022/12/30 09:33:04;;;;;;;7.33;1.73;;;;;;;-145.18;100.00;46705.31;6181531;23;20013;-74
2022/12/30 09:35:30;;;;;;;12.00;2.27;;;;;;;-145.18;100.00;46707.28;6182473;23;20307;-73
2022/12/30 09:37:55;;;;;;;9.07;1.70;;;;;;;-145.18;100.00;46701.41;6181633;23;20013;-74
2022/12/30 09:40:48;;;;;;;10.33;2.20;;;;;;;-145.18;100.00;46703.38;6182236;23;20013;-73
2022/12/30 09:43:36;;;;;;;10.57;1.80;;;;;;;-145.18;100.00;46703.38;6166481;23;20431;-73
2022/12/30 09:46:12;;;;;;;12.67;2.50;;;;;;;-145.18;100.00;46701.41;6163570;23;20239;-73
2022/12/30 09:48:53;;;;;;;;;;;;;;;-145.18;100.00;46707.28;6182266;23;20751;-73
2022/12/30 09:51:29;;;;;;;9.53;1.83;;;;;;;-145.18;100.00;46701.41;6182403;23;20219;-73
2022/12/30 09:54:05;;;;;;;12.13;2.20;;;;;;;-145.18;100.00;46707.28;6181522;23;20238;-73
2022/12/30 09:56:37;;;;;;;10.05;2.10;;;;;;;-145.18;100.00;46705.31;6181032;23;20393;-73
2022/12/30 09:59:20;;;;;;;9.37;2.17;;;;;;;-145.18;100.00;46707.28;6183754;23;20354;-73
2022/12/30 10:01:49;;;;;;;5.67;1.80;;;;;;;-145.18;100.00;46707.28;6184159;23;20231;-73
2022/12/30 10:04:17;;;;;;;7.53;1.70;;;;;;;-145.18;100.00;46707.28;6183537;23;20317;-74
2022/12/30 10:07:02;;;;;;;7.33;1.43;;;;;;;-145.18;100.00;46709.22;6184188;23;20231;-73
2022/12/30 10:09:54;;;;;;;8.80;2.28;;;;;;;-145.18;100.00;46707.28;6183554;23;20250;-73
2022/12/30 10:12:33;;;;;;;7.87;1.87;;;;;;;-145.18;100.00;46707.28;6184249;23;20333;-73
2022/12/30 10:15:17;;;;;;;8.70;1.77;;;;;;;-145.18;100.00;46705.31;6183262;23;20231;-73
2022/12/30 10:17:51;;;;;;;7.10;1.60;;;;;;;-145.18;100.00;46705.31;6183795;23;20253;-73
2022/12/30 10:20:28;;;;;;;11.73;1.80;;;;;;;-145.18;100.00;46705.31;6183784;23;20568;-73
2022/12/30 10:23:16;;;;;;;12.60;1.97;;;;;;;-145.18;100.00;46709.22;6183675;23;20234;-73
2022/12/30 10:25:50;;;;;;;6.00;1.60;;;;;;;-145.18;100.00;46707.28;6183966;23;20229;-73
2022/12/30 10:28:24;;;;;;;10.60;2.20;;;;;;;-145.18;100.00;46711.19;6183995;23;20541;-73
2022/12/30 10:30:49;;;;;;;7.23;2.03;;;;;;;-145.18;100.00;46709.22;6183292;23;20314;-73
2022/12/30 10:33:23;;;;;;;8.50;2.33;;;;;;;-145.18;100.00;46715.09;6183829;23;20267;-73
2022/12/30 10:35:55;;;;;;;7.30;1.43;;;;;;;-145.18;100.00;46707.28;6183582;23;20009;-74
2022/12/30 10:38:28;;;;;;;15.63;2.50;;;;;;;-145.18;100.00;46711.19;6183477;23;20285;-73
2022/12/30 10:41:21;;;;;;;6.90;1.30;;;;;;;-145.18;100.00;46713.13;6183138;23;20227;-73
2022/12/30 10:44:08;;;;;;;11.23;1.20;;;;;;;-145.18;100.00;46711.19;6183318;23;20261;-73
2022/12/30 10:46:58;;;;;;;7.27;1.10;;;;;;;-145.18;100.00;46709.22;6183861;23;20226;-73
2022/12/30 10:49:35;;;;;;;8.00;1.60;;;;;;;-145.18;100.00;46719.00;6183344;23;20238;-73
2022/12/30 10:52:01;;;;;;;6.07;1.80;;;;;;;-145.18;100.00;46707.28;6183381;23;20314;-73
2022/12/30 10:54:27;;;;;;;7.17;1.00;;;;;;;-145.18;100.00;46715.09;6183319;23;20243;-73
2022/12/30 10:56:52;;;;;;;8.63;2.07;;;;;;;-145.18;100.00;46713.13;6183328;23;20281;-73
2022/12/30 10:59:24;;;;;;;12.83;1.63;;;;;;;-145.18;100.00;46717.03;6183345;23;20021;-73
2022/12/30 11:01:58;;;;;;;8.43;1.47;;;;;;;-145.18;100.00;46717.03;6183312;23;20412;-73
2022/12/30 11:04:39;;;;;;;7.67;1.43;;;;;;;-145.18;100.00;46715.09;6182975;23;20647;-73
2022/12/30 11:07:13;;;;;;;7.03;1.57;;;;;;;-145.18;100.00;46717.03;6183283;23;20707;-73
2022/12/30 11:09:39;;;;;;;9.33;1.53;;;;;;;-145.18;100.00;46719.00;6182456;23;20700;-73
2022/12/30 11:15:11;;;;;;;9.83;2.27;;;;;;;-145.18;100.00;46720.94;6183150;23;20535;-73
2022/12/30 11:17:44;;;;;;;8.17;1.60;;;;;;;-145.18;100.00;46720.94;6183414;23;20285;-73
2022/12/30 11:20:12;;;;;;;10.80;1.37;;;;;;;-145.18;100.00;46717.03;6182857;23;20617;-73
2022/12/30 11:22:51;;;;;;;5.53;1.30;;;;;;;-145.18;100.00;46724.84;6183532;23;20562;-74
2022/12/30 11:25:28;;;;;;;11.03;2.07;;;;;;;-145.18;100.00;46722.91;6182910;23;20215;-74
2022/12/30 11:27:57;;;;;;;7.03;1.50;;;;;;;-145.18;100.00;46722.91;6182404;23;20255;-73
2022/12/30 11:30:38;;;;;;;10.60;1.70;;;;;;;-145.18;100.00;46724.84;6183018;23;20573;-74
2022/12/30 11:33:06;;;;;;;10.50;1.67;;;;;;;-145.18;100.00;46726.81;6182992;23;20242;-74
2022/12/30 11:35:39;;;;;;;6.77;1.20;;;;;;;-145.18;100.00;46726.81;6182544;23;20226;-74
2022/12/30 11:38:34;;;;;;;11.50;1.43;;;;;;;-145.18;100.00;46722.91;6182647;23;20235;-74
2022/12/30 11:41:18;;;;;;;11.60;1.47;;;;;;;-145.18;100.00;46728.75;6182235;23;20325;-74
2022/12/30 11:43:58;;;;;;;10.87;1.70;;;;;;;-145.18;100.00;46724.84;6182438;23;20597;-74
2022/12/30 11:46:30;;;;;;;9.43;1.50;;;;;;;-145.18;100.00;46726.81;6181628;23;20293;-74
2022/12/30 11:48:59;;;;;;;7.03;1.57;;;;;;;-145.18;100.00;46726.81;6181271;23;20239;-74
2022/12/30 11:51:28;;;;;;;11.37;2.40;;;;;;;-145.18;100.00;46722.91;6183236;23;20258;-73
2022/12/30 11:54:16;;;;;;;7.73;1.83;;;;;;;-145.18;100.00;46724.84;6182431;23;20262;-74
2022/12/30 11:57:05;;;;;;;9.63;1.23;;;;;;;-145.18;100.00;46724.84;6182638;23;20231;-74
2022/12/30 11:59:31;;;;;;;12.83;1.87;;;;;;;-145.18;100.00;46724.84;6182702;23;20260;-74
2022/12/30 12:02:00;;;;;;;10.73;1.60;;;;;;;-145.18;100.00;46724.84;6182332;23;20223;-74
2022/12/30 12:04:39;;;;;;;14.37;1.87;;;;;;;-145.18;100.00;46722.91;6182344;23;20247;-74